Balsam, Minnesota
Current Conditions -  °F | °C
As of 11:07 AM on Wednesday 26 Nov 2014 (Local Time) from KHZX Reporting Station
Overcast Overcast  
Wind Chill:   Ceiling: 1600
Heat Index: 19°   Visibility: 10mi
Dew Point: 14°   Wind: 12mph
Humidity: 80%   Direction: 350°N
Pressure: 30.21"   Gusts: NA
Location:  46.6404°N, 93.1222°W
Report Text: KHZX 261707Z AUTO 35010KT 10SM BKN016 OVC031 M07/M10 A3021 RMK AO2
Loading
Personal Weather Stations






























Interactive Weather Map New forecast layout! Learn more

10-Day Weather Forecast

Advertisements
Track Severe Weather on mobile